createdAt,value
2023-05-02T00:00:50.620Z,102137.31
2023-05-02T00:03:17.493Z,102132.13
2023-05-02T00:05:44.615Z,102125.97
2023-05-02T00:08:11.916Z,102124.19
2023-05-02T00:10:38.319Z,102126.13
2023-05-02T00:13:04.852Z,102133.94
2023-05-02T00:15:31.424Z,102143.38
2023-05-02T00:17:58.037Z,102129.38
2023-05-02T00:20:24.633Z,102130.22
2023-05-02T00:22:51.018Z,102134.44
2023-05-02T00:25:17.610Z,102132.53
2023-05-02T00:27:46.501Z,102136.06
2023-05-02T00:30:14.030Z,102137.72
2023-05-02T00:32:40.774Z,102137.72
2023-05-02T00:35:08.109Z,102141.13
2023-05-02T00:37:34.840Z,102141.78
2023-05-02T00:40:02.046Z,102146.03
2023-05-02T00:42:31.675Z,102148.63
2023-05-02T00:44:58.245Z,102135.63
2023-05-02T00:47:24.837Z,102139.19
2023-05-02T00:49:51.308Z,102146.31
2023-05-02T00:52:18.537Z,102153.16
2023-05-02T00:54:45.506Z,102150.56
2023-05-02T00:57:11.977Z,102160.13
2023-05-02T00:59:39.010Z,102157.53
2023-05-02T01:02:11.899Z,102165.16
2023-05-02T01:05:12.732Z,102164.38
2023-05-02T01:07:59.730Z,102170.50
2023-05-02T01:11:00.439Z,102174.75
2023-05-02T01:13:32.065Z,102173.94
2023-05-02T01:16:01.353Z,102164.81
2023-05-02T01:18:32.420Z,102172.22
2023-05-02T01:21:04.594Z,102177.72
2023-05-02T01:23:41.080Z,102179.81
2023-05-02T01:26:21.619Z,102179.94
2023-05-02T01:29:05.983Z,102188.66
2023-05-02T01:31:38.254Z,102185.41
2023-05-02T01:34:10.161Z,102189.09
2023-05-02T01:36:40.836Z,102199.50
2023-05-02T01:39:08.600Z,102192.53
2023-05-02T01:41:36.728Z,102195.44
2023-05-02T01:44:04.735Z,102198.69
2023-05-02T01:46:34.327Z,102199.94
2023-05-02T01:49:05.499Z,102211.59
2023-05-02T01:51:35.392Z,102214.47
2023-05-02T01:54:07.243Z,102217.66
2023-05-02T01:56:37.929Z,102224.78
2023-05-02T01:59:10.961Z,102224.25
2023-05-02T02:01:40.218Z,102224.41
2023-05-02T02:04:11.371Z,102226.00
2023-05-02T02:06:39.025Z,102225.19
2023-05-02T02:09:06.069Z,102221.09
2023-05-02T02:11:44.045Z,102224.00
2023-05-02T02:14:27.968Z,102227.41
2023-05-02T02:16:57.601Z,102230.00
2023-05-02T02:19:24.792Z,102236.28
2023-05-02T02:21:54.017Z,102248.59
2023-05-02T02:24:22.787Z,102256.41
2023-05-02T02:26:49.277Z,102248.59
2023-05-02T02:29:15.707Z,102259.13
2023-05-02T02:31:42.196Z,102264.47
2023-05-02T02:34:08.888Z,102256.69
2023-05-02T02:36:57.458Z,102260.41
2023-05-02T02:39:27.014Z,102266.00
2023-05-02T02:42:04.920Z,102261.09
2023-05-02T02:44:44.193Z,102270.81
2023-05-02T02:47:19.866Z,102270.81
2023-05-02T02:50:08.412Z,102273.69
2023-05-02T02:52:46.792Z,102280.91
2023-05-02T02:55:24.354Z,102279.16
2023-05-02T02:58:00.245Z,102280.25
2023-05-02T03:00:28.732Z,102284.78
2023-05-02T03:02:56.609Z,102283.66
2023-05-02T03:05:24.082Z,102289.16
2023-05-02T03:07:51.322Z,102295.56
2023-05-02T03:10:18.024Z,102295.44
2023-05-02T03:12:44.414Z,102300.47
2023-05-02T03:15:41.532Z,102299.66
2023-05-02T03:18:08.217Z,102308.25
2023-05-02T03:20:34.713Z,102304.00
2023-05-02T03:23:01.434Z,102311.81
2023-05-02T03:25:28.104Z,102306.47
2023-05-02T03:27:57.463Z,102318.63
2023-05-02T03:30:23.975Z,102317.97
2023-05-02T03:32:50.637Z,102313.72
2023-05-02T03:35:17.544Z,102322.72
2023-05-02T03:37:44.783Z,102325.31
2023-05-02T03:40:11.666Z,102331.50
2023-05-02T03:42:41.424Z,102327.25
2023-05-02T03:45:08.750Z,102337.75
2023-05-02T03:47:35.249Z,102332.56
2023-05-02T03:50:03.400Z,102340.63
2023-05-02T03:52:29.862Z,102343.81
2023-05-02T03:54:57.265Z,102341.63
2023-05-02T03:57:23.730Z,102347.63
2023-05-02T03:59:50.148Z,102340.78
2023-05-02T04:02:16.644Z,102348.56
2023-05-02T04:04:43.876Z,102344.75
2023-05-02T04:07:16.834Z,102346.25
2023-05-02T04:09:43.289Z,102361.00
2023-05-02T04:12:09.744Z,102357.84
2023-05-02T04:14:36.156Z,102360.44
2023-05-02T04:17:02.645Z,102362.91
2023-05-02T04:19:29.115Z,102365.91
2023-05-02T04:21:55.571Z,102366.03
2023-05-02T04:24:22.631Z,102360.72
2023-05-02T04:26:49.083Z,102371.09
2023-05-02T04:29:15.604Z,102376.13
2023-05-02T04:31:42.260Z,102385.69
2023-05-02T04:34:08.677Z,102390.31
2023-05-02T04:36:35.324Z,102392.34
2023-05-02T04:39:02.248Z,102404.34
2023-05-02T04:41:28.650Z,102405.81
2023-05-02T04:43:55.146Z,102408.00
2023-05-02T04:46:21.619Z,102417.94
2023-05-02T04:48:48.208Z,102417.94
2023-05-02T04:51:16.902Z,102427.34
2023-05-02T04:53:43.543Z,102430.88
2023-05-02T04:56:11.320Z,102436.34
2023-05-02T04:58:37.828Z,102435.09
2023-05-02T05:01:04.296Z,102441.91
2023-05-02T05:03:31.343Z,102434.13
2023-05-02T05:05:57.977Z,102442.16
2023-05-02T05:08:24.500Z,102438.34
2023-05-02T05:10:51.930Z,102449.50
2023-05-02T05:13:18.486Z,102454.44
2023-05-02T05:15:45.287Z,102460.41
2023-05-02T05:18:12.159Z,102468.91
2023-05-02T05:20:38.802Z,102470.53
2023-05-02T05:23:05.529Z,102475.03
2023-05-02T05:25:32.684Z,102478.81
2023-05-02T05:28:00.321Z,102482.81
2023-05-02T05:30:27.364Z,102477.63
2023-05-02T05:32:53.855Z,102483.88
2023-05-02T05:35:21.773Z,102488.75
2023-05-02T05:37:48.196Z,102490.28
2023-05-02T05:40:14.643Z,102501.81
2023-05-02T05:42:41.147Z,102511.88
2023-05-02T05:45:08.295Z,102510.38
2023-05-02T05:47:34.970Z,102512.34
2023-05-02T05:50:01.802Z,102521.09
2023-05-02T05:52:28.540Z,102514.25
2023-05-02T05:54:56.490Z,102529.66
2023-05-02T05:57:24.261Z,102533.59
2023-05-02T05:59:53.077Z,102533.59
2023-05-02T06:02:20.127Z,102538.50
2023-05-02T06:04:47.133Z,102540.50
2023-05-02T06:07:13.725Z,102541.91
2023-05-02T06:09:40.374Z,102544.69
2023-05-02T06:12:07.099Z,102550.97
2023-05-02T06:14:35.282Z,102552.25
2023-05-02T06:17:02.160Z,102552.44
2023-05-02T06:19:28.956Z,102553.97
2023-05-02T06:21:55.734Z,102563.84
2023-05-02T06:24:22.522Z,102561.38
2023-05-02T06:26:49.523Z,102564.25
2023-05-02T06:29:16.078Z,102571.41
2023-05-02T06:31:44.066Z,102569.94
2023-05-02T06:34:12.896Z,102575.56
2023-05-02T06:36:40.519Z,102584.16
2023-05-02T06:39:22.644Z,102584.56
2023-05-02T06:41:49.183Z,102599.28
2023-05-02T06:44:33.477Z,102603.09
2023-05-02T06:47:28.996Z,102604.25
2023-05-02T06:49:56.271Z,102614.56
2023-05-02T06:52:22.782Z,102618.09
2023-05-02T06:54:49.666Z,102631.16
2023-05-02T06:57:17.298Z,102628.97
2023-05-02T06:59:43.734Z,102636.84
2023-05-02T07:02:10.226Z,102631.94
2023-05-02T07:04:36.958Z,102640.28
2023-05-02T07:07:04.120Z,102636.34
2023-05-02T07:09:30.784Z,102648.38
2023-05-02T07:11:57.807Z,102645.28
2023-05-02T07:14:27.615Z,102654.69
2023-05-02T07:16:54.137Z,102656.66
2023-05-02T07:19:20.637Z,102667.78
2023-05-02T07:21:47.267Z,102662.53
2023-05-02T07:24:13.780Z,102667.91
2023-05-02T07:26:41.127Z,102664.88
2023-05-02T07:29:08.801Z,102674.94
2023-05-02T07:31:35.209Z,102676.09
2023-05-02T07:34:10.821Z,102670.06
2023-05-02T07:36:37.543Z,102681.31
2023-05-02T07:39:04.183Z,102677.75
2023-05-02T07:41:31.727Z,102679.25
2023-05-02T07:43:58.524Z,102679.69
2023-05-02T07:46:26.024Z,102682.47
2023-05-02T07:48:54.007Z,102692.25
2023-05-02T07:51:21.699Z,102685.34
2023-05-02T07:53:53.192Z,102689.09
2023-05-02T07:56:20.056Z,102686.28
2023-05-02T07:59:27.693Z,102691.22
2023-05-02T08:01:54.460Z,102693.72
2023-05-02T08:04:21.116Z,102700.34
2023-05-02T08:06:47.957Z,102696.69
2023-05-02T08:09:14.697Z,102701.66
2023-05-02T08:11:41.370Z,102705.78
2023-05-02T08:14:08.669Z,102712.38
2023-05-02T08:16:35.581Z,102710.53
2023-05-02T08:19:02.428Z,102719.88
2023-05-02T08:21:31.155Z,102717.22
2023-05-02T08:23:59.066Z,102718.22
2023-05-02T08:26:26.563Z,102726.09
2023-05-02T08:28:53.467Z,102725.78
2023-05-02T08:31:20.174Z,102727.59
2023-05-02T08:33:47.665Z,102732.97
2023-05-02T08:36:15.782Z,102735.63
2023-05-02T08:38:43.699Z,102737.06
2023-05-02T08:41:19.546Z,102744.72
2023-05-02T08:43:47.363Z,102744.63
2023-05-02T08:46:17.519Z,102740.78
2023-05-02T08:48:48.240Z,102751.31
2023-05-02T08:51:35.671Z,102749.97
2023-05-02T08:54:03.853Z,102753.88
2023-05-02T08:56:30.288Z,102744.81
2023-05-02T08:58:57.066Z,102749.72
2023-05-02T09:01:27.566Z,102749.19
2023-05-02T09:03:57.765Z,102751.50
2023-05-02T09:06:46.721Z,102757.13
2023-05-02T09:09:14.360Z,102755.91
2023-05-02T09:11:41.502Z,102755.34
2023-05-02T09:14:45.143Z,102774.91
2023-05-02T09:17:13.772Z,102768.50
2023-05-02T09:19:43.067Z,102772.97
2023-05-02T09:22:10.874Z,102769.28
2023-05-02T09:24:38.574Z,102763.69
2023-05-02T09:27:05.672Z,102772.44
2023-05-02T09:29:39.460Z,102769.44
2023-05-02T09:32:06.852Z,102774.72
2023-05-02T09:34:34.026Z,102778.81
2023-05-02T09:37:02.569Z,102772.91
2023-05-02T09:39:29.591Z,102786.31
2023-05-02T09:41:56.883Z,102790.75
2023-05-02T09:44:28.393Z,102791.31
2023-05-02T09:47:02.587Z,102789.69
2023-05-02T09:49:44.965Z,102783.44
2023-05-02T09:52:14.112Z,102789.56
2023-05-02T09:54:40.837Z,102796.38
2023-05-02T09:57:07.486Z,102794.88
2023-05-02T09:59:34.478Z,102786.03
2023-05-02T10:02:05.501Z,102794.00
2023-05-02T10:04:42.047Z,102789.84
2023-05-02T10:07:11.254Z,102792.44
2023-05-02T10:09:45.767Z,102796.66
2023-05-02T10:12:15.570Z,102790.31
2023-05-02T10:14:49.509Z,102791.03
2023-05-02T10:17:28.161Z,102787.94
2023-05-02T10:20:04.175Z,102809.91
2023-05-02T10:22:40.310Z,102815.81
2023-05-02T10:25:26.910Z,102812.44
2023-05-02T10:27:56.593Z,102807.00
2023-05-02T10:30:24.473Z,102815.16
2023-05-02T10:32:55.942Z,102819.91
2023-05-02T10:35:25.638Z,102816.03
2023-05-02T10:37:52.783Z,102824.75
2023-05-02T10:40:19.411Z,102830.53
2023-05-02T10:42:53.820Z,102820.31
2023-05-02T10:45:40.245Z,102823.03
2023-05-02T10:48:17.906Z,102812.91
2023-05-02T10:51:34.386Z,102831.84
2023-05-02T10:54:30.054Z,102825.75
2023-05-02T10:56:59.438Z,102824.53
2023-05-02T10:59:34.822Z,102819.97
2023-05-02T11:02:06.821Z,102829.88
2023-05-02T11:05:39.472Z,102827.50
2023-05-02T11:08:15.210Z,102836.13
2023-05-02T11:10:46.284Z,102849.75
2023-05-02T11:13:13.064Z,102846.31
2023-05-02T11:15:42.445Z,102839.16
2023-05-02T11:18:14.384Z,102836.56
2023-05-02T11:20:43.264Z,102835.22
2023-05-02T11:23:38.474Z,102839.91
2023-05-02T11:27:08.585Z,102845.13
2023-05-02T11:30:47.973Z,102842.56
2023-05-02T11:33:17.353Z,102848.84
2023-05-02T11:35:45.413Z,102841.38
2023-05-02T11:38:15.009Z,102842.88
2023-05-02T11:40:49.662Z,102847.91
2023-05-02T11:43:17.975Z,102844.81
2023-05-02T11:45:47.433Z,102840.34
2023-05-02T11:48:16.892Z,102848.16
2023-05-02T11:50:50.472Z,102852.38
2023-05-02T11:53:24.704Z,102862.16
2023-05-02T11:55:53.447Z,102853.53
2023-05-02T11:58:22.873Z,102861.97
2023-05-02T12:00:50.514Z,102850.81
2023-05-02T12:03:28.802Z,102863.13
2023-05-02T12:05:56.242Z,102861.16
2023-05-02T12:08:34.562Z,102867.22
2023-05-02T12:11:03.666Z,102878.31
2023-05-02T12:13:31.294Z,102870.91
2023-05-02T12:15:58.489Z,102881.06
2023-05-02T12:18:27.151Z,102881.47
2023-05-02T12:20:56.147Z,102891.59
2023-05-02T12:23:26.403Z,102900.56
2023-05-02T12:25:53.115Z,102893.84
2023-05-02T12:28:22.134Z,102900.00
2023-05-02T12:30:50.707Z,102888.47
2023-05-02T12:33:18.461Z,102888.66
2023-05-02T12:35:49.628Z,102891.78
2023-05-02T12:38:18.701Z,102889.88
2023-05-02T12:40:58.722Z,102908.91
2023-05-02T12:43:25.735Z,102898.06
2023-05-02T12:46:09.751Z,102904.75
2023-05-02T12:48:37.472Z,102916.03
2023-05-02T12:51:04.860Z,102904.81
2023-05-02T12:53:41.483Z,102916.41
2023-05-02T12:56:12.477Z,102923.56
2023-05-02T12:58:50.981Z,102925.03
2023-05-02T13:01:17.749Z,102910.75
2023-05-02T13:03:44.798Z,102911.13
2023-05-02T13:06:11.435Z,102920.91
2023-05-02T13:08:38.036Z,102909.94
2023-05-02T13:11:12.976Z,102911.69
2023-05-02T13:13:40.509Z,102907.38
2023-05-02T13:16:11.226Z,102904.75
2023-05-02T13:18:38.870Z,102906.88
2023-05-02T13:21:05.398Z,102908.84
2023-05-02T13:23:32.267Z,102907.16
2023-05-02T13:25:59.237Z,102915.06
2023-05-02T13:28:26.011Z,102918.47
2023-05-02T13:30:52.596Z,102923.56
2023-05-02T13:33:19.217Z,102923.25
2023-05-02T13:35:46.571Z,102919.88
2023-05-02T13:38:13.098Z,102910.94
2023-05-02T13:40:40.364Z,102918.16
2023-05-02T13:43:07.835Z,102920.63
2023-05-02T13:45:34.366Z,102919.00
2023-05-02T13:48:33.814Z,102930.19
2023-05-02T13:51:00.249Z,102915.81
2023-05-02T13:53:26.887Z,102918.88
2023-05-02T13:55:53.284Z,102919.03
2023-05-02T13:58:19.701Z,102930.91
2023-05-02T14:00:46.594Z,102936.41
2023-05-02T14:03:13.653Z,102937.88
2023-05-02T14:05:43.949Z,102934.25
2023-05-02T14:08:11.523Z,102935.84
2023-05-02T14:10:38.741Z,102932.13
2023-05-02T14:13:05.319Z,102934.00
2023-05-02T14:15:31.797Z,102919.53
2023-05-02T14:17:58.310Z,102929.53
2023-05-02T14:20:24.852Z,102927.72
2023-05-02T14:22:51.404Z,102931.63
2023-05-02T14:25:19.779Z,102933.19
2023-05-02T14:27:46.978Z,102927.63
2023-05-02T14:30:13.464Z,102939.28
2023-05-02T14:32:40.273Z,102938.69
2023-05-02T14:35:07.053Z,102930.22
2023-05-02T14:37:33.457Z,102934.28
2023-05-02T14:40:00.030Z,102940.25
2023-05-02T14:42:26.638Z,102945.09
2023-05-02T14:44:53.471Z,102939.72
2023-05-02T14:47:20.469Z,102942.56
2023-05-02T14:49:47.045Z,102940.34
2023-05-02T14:52:13.573Z,102933.28
2023-05-02T14:54:39.963Z,102938.84
2023-05-02T14:57:06.969Z,102939.31
2023-05-02T14:59:33.361Z,102927.53
2023-05-02T15:01:59.872Z,102933.78
2023-05-02T15:04:27.469Z,102939.66
2023-05-02T15:06:55.481Z,102936.25
2023-05-02T15:09:23.612Z,102936.78
2023-05-02T15:11:50.225Z,102927.44
2023-05-02T15:14:16.660Z,102929.47
2023-05-02T15:16:43.264Z,102927.47
2023-05-02T15:19:09.736Z,102927.84
2023-05-02T15:21:36.404Z,102930.38
2023-05-02T15:24:03.782Z,102929.38
2023-05-02T15:26:30.400Z,102923.59
2023-05-02T15:28:56.825Z,102924.03
2023-05-02T15:31:23.579Z,102923.53
2023-05-02T15:33:51.041Z,102922.63
2023-05-02T15:36:17.919Z,102925.78
2023-05-02T15:38:44.381Z,102926.44
2023-05-02T15:41:11.547Z,102928.53
2023-05-02T15:43:38.309Z,102930.97
2023-05-02T15:46:05.062Z,102926.94
2023-05-02T15:48:35.761Z,102936.03
2023-05-02T15:51:02.811Z,102938.56
2023-05-02T15:53:29.465Z,102938.66
2023-05-02T15:55:56.110Z,102928.44
2023-05-02T15:58:22.661Z,102931.84
2023-05-02T16:00:49.095Z,102937.78
2023-05-02T16:03:15.791Z,102937.13
2023-05-02T16:05:42.432Z,102938.28
2023-05-02T16:08:08.927Z,102940.75
2023-05-02T16:10:36.598Z,102945.22
2023-05-02T16:13:03.102Z,102940.72
2023-05-02T16:15:30.325Z,102936.59
2023-05-02T16:17:57.168Z,102941.13
2023-05-02T16:20:23.869Z,102940.88
2023-05-02T16:22:50.449Z,102937.91
2023-05-02T16:25:17.677Z,102942.94
2023-05-02T16:27:44.431Z,102942.47
2023-05-02T16:30:11.281Z,102948.16
2023-05-02T16:32:37.930Z,102953.53
2023-05-02T16:35:07.489Z,102951.28
2023-05-02T16:37:35.266Z,102944.56
2023-05-02T16:40:02.384Z,102945.00
2023-05-02T16:42:29.388Z,102941.56
2023-05-02T16:44:57.129Z,102935.09
2023-05-02T16:47:24.406Z,102938.06
2023-05-02T16:49:58.749Z,102937.41
2023-05-02T16:52:26.342Z,102945.88
2023-05-02T16:54:53.023Z,102947.47
2023-05-02T16:57:21.017Z,102944.84
2023-05-02T16:59:49.059Z,102948.03
2023-05-02T17:02:16.155Z,102958.34
2023-05-02T17:04:43.221Z,102960.06
2023-05-02T17:07:12.153Z,102960.63
2023-05-02T17:09:40.039Z,102948.81
2023-05-02T17:12:07.414Z,102965.72
2023-05-02T17:14:34.299Z,102970.59
2023-05-02T17:17:01.333Z,102971.97
2023-05-02T17:19:27.924Z,102963.56
2023-05-02T17:21:56.606Z,102973.94
2023-05-02T17:24:23.248Z,102965.94
2023-05-02T17:26:51.328Z,102958.75
2023-05-02T17:29:18.079Z,102955.16
2023-05-02T17:31:44.761Z,102963.91
2023-05-02T17:34:11.136Z,102966.47
2023-05-02T17:36:41.666Z,102958.34
2023-05-02T17:39:08.604Z,102962.38
2023-05-02T17:41:38.105Z,102965.66
2023-05-02T17:44:07.413Z,102968.66
2023-05-02T17:46:34.009Z,102970.75
2023-05-02T17:49:01.171Z,102970.50
2023-05-02T17:51:28.002Z,102973.16
2023-05-02T17:53:54.521Z,102974.75
2023-05-02T17:56:20.962Z,102979.81
2023-05-02T17:58:47.715Z,102982.41
2023-05-02T18:01:14.513Z,102985.22
2023-05-02T18:03:41.756Z,102980.19
2023-05-02T18:06:08.884Z,102980.53
2023-05-02T18:08:35.519Z,102976.16
2023-05-02T18:11:03.216Z,102988.25
2023-05-02T18:13:29.828Z,102995.94
2023-05-02T18:16:01.446Z,102994.75
2023-05-02T18:18:28.144Z,102990.06
2023-05-02T18:20:55.697Z,102998.53
2023-05-02T18:23:22.345Z,102995.16
2023-05-02T18:25:48.726Z,102995.59
2023-05-02T18:28:15.389Z,102998.78
2023-05-02T18:30:41.777Z,102997.97
2023-05-02T18:33:08.988Z,103004.31
2023-05-02T18:35:35.630Z,103002.91
2023-05-02T18:38:02.479Z,103001.25
2023-05-02T18:40:28.887Z,102999.47
2023-05-02T18:42:55.298Z,103001.50
2023-05-02T18:45:21.739Z,103008.69
2023-05-02T18:47:49.381Z,103004.19
2023-05-02T18:50:15.898Z,103003.25
2023-05-02T18:52:42.282Z,103006.88
2023-05-02T18:55:08.725Z,103012.25
2023-05-02T18:57:35.113Z,103007.28
2023-05-02T19:00:01.749Z,103002.81
2023-05-02T19:02:28.297Z,103002.56
2023-05-02T19:04:55.188Z,103015.97
2023-05-02T19:07:21.650Z,103016.56
2023-05-02T19:09:48.092Z,103020.94
2023-05-02T19:12:14.480Z,103021.28
2023-05-02T19:14:41.187Z,103018.53
2023-05-02T19:17:07.635Z,103023.44
2023-05-02T19:19:34.092Z,103018.72
2023-05-02T19:22:00.479Z,103037.97
2023-05-02T19:24:26.916Z,103028.31
2023-05-02T19:26:53.622Z,103036.19
2023-05-02T19:29:20.088Z,103036.19
2023-05-02T19:31:46.624Z,103041.47
2023-05-02T19:34:13.096Z,103042.50
2023-05-02T19:36:39.537Z,103043.69
2023-05-02T19:39:06.284Z,103043.78
2023-05-02T19:41:32.784Z,103035.84
2023-05-02T19:44:00.228Z,103032.59
2023-05-02T19:46:27.175Z,103037.91
2023-05-02T19:48:53.698Z,103035.53
2023-05-02T19:51:25.230Z,103047.72
2023-05-02T19:53:58.307Z,103048.56
2023-05-02T19:56:28.759Z,103045.38
2023-05-02T19:58:56.723Z,103041.22
2023-05-02T20:01:23.224Z,103042.59
2023-05-02T20:03:49.752Z,103043.72
2023-05-02T20:06:16.240Z,103051.78
2023-05-02T20:08:42.719Z,103051.38
2023-05-02T20:11:09.078Z,103055.84
2023-05-02T20:13:35.849Z,103064.59
2023-05-02T20:16:02.565Z,103068.97
2023-05-02T20:18:28.982Z,103071.13
2023-05-02T20:20:55.542Z,103069.56
2023-05-02T20:23:21.955Z,103069.97
2023-05-02T20:25:48.356Z,103062.31
2023-05-02T20:28:15.001Z,103064.41
2023-05-02T20:30:42.803Z,103073.28
2023-05-02T20:33:15.667Z,103071.09
2023-05-02T20:35:43.593Z,103078.13
2023-05-02T20:38:10.069Z,103081.75
2023-05-02T20:40:40.879Z,103071.41
2023-05-02T20:43:07.819Z,103087.81
2023-05-02T20:45:34.250Z,103082.94
2023-05-02T20:48:00.798Z,103084.19
2023-05-02T20:50:28.271Z,103092.16
2023-05-02T20:52:55.280Z,103097.59
2023-05-02T20:55:22.984Z,103096.97
2023-05-02T20:57:53.369Z,103100.66
2023-05-02T21:00:22.269Z,103096.75
2023-05-02T21:02:49.035Z,103090.94
2023-05-02T21:05:15.666Z,103089.38
2023-05-02T21:07:42.127Z,103092.25
2023-05-02T21:10:09.324Z,103087.50
2023-05-02T21:12:35.749Z,103095.44
2023-05-02T21:15:02.366Z,103088.09
2023-05-02T21:17:28.949Z,103089.63
2023-05-02T21:19:56.010Z,103086.03
2023-05-02T21:22:22.439Z,103089.75
2023-05-02T21:24:50.306Z,103090.94
2023-05-02T21:27:16.793Z,103095.03
2023-05-02T21:29:43.204Z,103095.84
2023-05-02T21:32:09.702Z,103082.22
2023-05-02T21:34:36.274Z,103078.78
2023-05-02T21:37:02.701Z,103084.53
2023-05-02T21:39:29.209Z,103083.50
2023-05-02T21:41:56.238Z,103081.59
2023-05-02T21:44:22.734Z,103078.28
2023-05-02T21:46:50.398Z,103081.63
2023-05-02T21:49:16.983Z,103095.50
2023-05-02T21:51:43.447Z,103092.13
2023-05-02T21:54:09.905Z,103090.44
2023-05-02T21:56:36.332Z,103089.72
2023-05-02T21:59:02.930Z,103088.81
2023-05-02T22:01:29.467Z,103093.03
2023-05-02T22:03:56.515Z,103089.63
2023-05-02T22:06:23.040Z,103086.59
2023-05-02T22:08:49.444Z,103081.78
2023-05-02T22:11:15.922Z,103070.94
2023-05-02T22:13:42.313Z,103072.88
2023-05-02T22:16:08.977Z,103079.94
2023-05-02T22:18:35.541Z,103075.63
2023-05-02T22:21:02.184Z,103064.56
2023-05-02T22:23:28.620Z,103066.25
2023-05-02T22:25:54.991Z,103069.25
2023-05-02T22:28:21.594Z,103068.88
2023-05-02T22:30:47.972Z,103064.75
2023-05-02T22:33:14.391Z,103071.09
2023-05-02T22:35:40.957Z,103070.19
2023-05-02T22:38:10.917Z,103072.28
2023-05-02T22:40:37.457Z,103074.94
2023-05-02T22:43:03.939Z,103062.25
2023-05-02T22:45:30.540Z,103059.84
2023-05-02T22:47:57.078Z,103068.38
2023-05-02T22:50:24.533Z,103067.56
2023-05-02T22:52:51.119Z,103075.47
2023-05-02T22:55:17.701Z,103082.63
2023-05-02T22:57:44.100Z,103076.84
2023-05-02T23:00:11.286Z,103076.94
2023-05-02T23:02:38.206Z,103072.69
2023-05-02T23:05:06.471Z,103078.00
2023-05-02T23:07:33.098Z,103076.53
2023-05-02T23:09:59.540Z,103087.91
2023-05-02T23:12:25.971Z,103077.78
2023-05-02T23:14:52.346Z,103082.13
2023-05-02T23:17:18.825Z,103083.84
2023-05-02T23:19:45.283Z,103096.78
2023-05-02T23:22:11.728Z,103095.16
2023-05-02T23:24:38.321Z,103095.31
2023-05-02T23:27:06.252Z,103092.25
2023-05-02T23:29:32.901Z,103096.84
2023-05-02T23:31:59.443Z,103086.47
2023-05-02T23:34:26.039Z,103095.88
2023-05-02T23:36:52.861Z,103105.47
2023-05-02T23:39:19.325Z,103107.88
2023-05-02T23:41:45.743Z,103116.34
2023-05-02T23:44:12.221Z,103112.19
2023-05-02T23:46:38.705Z,103110.53
2023-05-02T23:49:05.211Z,103112.13
2023-05-02T23:51:32.059Z,103114.75
2023-05-02T23:53:58.592Z,103120.06
2023-05-02T23:56:25.429Z,103123.53
2023-05-02T23:58:51.841Z,103112.53
